Time;durP1;ratioP1;P1;durP2;ratioP2;P2;SDS_P1;SDS_P2;PMS_P1;PMS_P2;Temp;Humidity;BMP_temperature;BMP_pressure;BME280_temperature;BME280_humidity;BME280_pressure;Samples;Min_cycle;Max_cycle;Signal;HPM_P1;HPM_P2
2024/01/06 00:00:17;;;;;;;20.20;18.20;;;6.90;99.90;;;;;;4962956;28;20209;-62
2024/01/06 00:02:45;;;;;;;19.87;18.03;;;6.80;99.90;;;;;;4968727;28;20891;-63
2024/01/06 00:05:12;;;;;;;22.00;19.87;;;6.80;99.90;;;;;;4947546;29;20706;-61
2024/01/06 00:07:39;;;;;;;21.27;19.07;;;6.90;99.90;;;;;;4964738;28;20546;-61
2024/01/06 00:10:07;;;;;;;20.50;18.60;;;6.90;99.90;;;;;;4951926;28;20663;-62
2024/01/06 00:12:34;;;;;;;22.67;20.43;;;6.80;99.90;;;;;;4969175;28;20757;-62
2024/01/06 00:15:01;;;;;;;20.40;18.40;;;6.80;99.90;;;;;;4962973;28;20195;-62
2024/01/06 00:17:28;;;;;;;21.13;19.03;;;6.80;99.90;;;;;;4965773;28;20213;-61
2024/01/06 00:19:55;;;;;;;20.37;18.27;;;6.90;99.90;;;;;;4967218;28;20619;-62
2024/01/06 00:22:23;;;;;;;19.40;17.23;;;6.90;99.90;;;;;;4939954;29;20215;-62
2024/01/06 00:24:50;;;;;;;18.30;16.60;;;6.90;99.90;;;;;;4970505;28;20257;-63
2024/01/06 00:27:17;;;;;;;17.60;16.03;;;6.90;99.90;;;;;;4973342;28;20679;-62
2024/01/06 00:29:44;;;;;;;18.77;17.13;;;6.90;99.90;;;;;;4972375;28;20201;-61
2024/01/06 00:32:11;;;;;;;19.93;18.13;;;6.90;99.90;;;;;;4954267;28;20257;-61
2024/01/06 00:34:38;;;;;;;20.07;18.27;;;6.90;99.90;;;;;;4943658;28;20207;-62
2024/01/06 00:37:05;;;;;;;17.57;16.07;;;6.90;99.90;;;;;;4971552;28;20202;-62
2024/01/06 00:39:32;;;;;;;18.40;16.60;;;6.90;99.90;;;;;;4970760;28;20210;-62
2024/01/06 00:42:00;;;;;;;19.30;17.40;;;6.90;99.90;;;;;;4972749;28;20980;-67
2024/01/06 00:44:26;;;;;;;19.17;17.27;;;6.80;99.90;;;;;;4972556;28;20186;-62
2024/01/06 00:46:53;;;;;;;20.30;18.23;;;6.90;99.90;;;;;;4972301;28;20198;-61
2024/01/06 00:49:20;;;;;;;19.47;17.60;;;6.80;99.90;;;;;;4980456;28;20206;-61
2024/01/06 00:51:48;;;;;;;19.33;17.50;;;6.90;99.90;;;;;;4965290;28;20210;-61
2024/01/06 00:54:15;;;;;;;20.33;18.23;;;6.80;99.90;;;;;;4974689;28;20198;-62
2024/01/06 00:56:42;;;;;;;20.53;18.63;;;6.80;99.90;;;;;;4955951;28;20630;-61
2024/01/06 00:59:09;;;;;;;23.07;19.10;;;6.80;99.90;;;;;;4967111;28;20198;-62
2024/01/06 01:01:37;;;;;;;21.40;19.20;;;6.80;99.90;;;;;;4965761;28;20266;-68
2024/01/06 01:04:04;;;;;;;21.07;18.90;;;6.80;99.90;;;;;;4966253;28;20187;-61
2024/01/06 01:06:32;;;;;;;22.03;19.67;;;6.80;99.90;;;;;;4953303;28;20226;-62
2024/01/06 01:08:59;;;;;;;20.97;18.73;;;6.80;99.90;;;;;;4969129;28;20201;-61
2024/01/06 01:11:26;;;;;;;21.73;19.43;;;6.80;99.90;;;;;;4967705;28;20401;-61
2024/01/06 01:13:53;;;;;;;19.87;17.93;;;6.80;99.90;;;;;;4970620;28;20194;-61
2024/01/06 01:16:20;;;;;;;20.90;18.70;;;6.80;99.90;;;;;;4953371;28;20285;-61
2024/01/06 01:18:47;;;;;;;21.80;18.37;;;6.80;99.90;;;;;;4967569;28;20281;-61
2024/01/06 01:21:14;;;;;;;19.93;17.50;;;6.80;99.90;;;;;;4966296;28;20294;-62
2024/01/06 01:23:42;;;;;;;20.87;18.37;;;6.80;99.90;;;;;;4951206;28;20222;-68
2024/01/06 01:26:09;;;;;;;19.87;17.83;;;6.70;99.90;;;;;;4964982;28;20202;-61
2024/01/06 01:28:36;;;;;;;19.57;17.53;;;6.80;99.90;;;;;;4979430;28;20206;-61
2024/01/06 01:31:03;;;;;;;18.60;16.70;;;6.80;99.90;;;;;;4950742;28;20202;-60
2024/01/06 01:33:30;;;;;;;20.17;16.70;;;6.80;99.90;;;;;;4971140;28;20209;-61
2024/01/06 01:35:57;;;;;;;18.33;16.47;;;6.80;99.90;;;;;;4971243;28;20199;-60
2024/01/06 01:38:28;;;;;;;19.63;16.77;;;6.80;99.90;;;;;;4954356;28;20336;-60
2024/01/06 01:40:55;;;;;;;19.03;17.13;;;6.80;99.90;;;;;;4970159;28;20612;-65
2024/01/06 01:43:23;;;;;;;19.43;17.40;;;6.80;99.90;;;;;;4952275;28;20229;-62
2024/01/06 01:45:54;;;;;;;21.90;19.53;;;6.80;99.90;;;;;;4970738;28;20208;-60
2024/01/06 01:48:23;;;;;;;18.40;16.80;;;6.80;99.90;;;;;;4963305;28;20211;-61
2024/01/06 01:50:52;;;;;;;18.90;17.07;;;6.80;99.90;;;;;;4971106;28;20261;-61
2024/01/06 01:53:20;;;;;;;22.57;19.13;;;6.80;99.90;;;;;;4937779;28;20202;-61
2024/01/06 01:55:48;;;;;;;17.90;16.20;;;6.80;99.90;;;;;;4964638;28;20218;-62
2024/01/06 01:58:16;;;;;;;17.93;16.13;;;6.80;99.90;;;;;;4950722;28;20280;-61
2024/01/06 02:00:43;;;;;;;20.73;18.70;;;6.80;99.90;;;;;;4970786;28;20257;-61
2024/01/06 02:03:13;;;;;;;18.20;16.40;;;6.80;99.90;;;;;;4972813;28;20242;-62
2024/01/06 02:05:41;;;;;;;24.83;20.60;;;6.90;99.90;;;;;;4939400;28;20276;-61
2024/01/06 02:08:08;;;;;;;20.30;18.27;;;6.90;99.90;;;;;;4971024;28;20285;-61
2024/01/06 02:10:35;;;;;;;20.17;17.80;;;6.90;99.90;;;;;;4969328;28;20278;-61
2024/01/06 02:13:12;;;;;;;20.77;18.67;;;6.90;99.90;;;;;;4952277;28;20273;-61
2024/01/06 02:15:40;;;;;;;18.87;16.97;;;6.90;99.90;;;;;;4977263;28;20198;-61
2024/01/06 02:18:07;;;;;;;20.30;18.33;;;6.90;99.90;;;;;;4968752;28;20233;-62
2024/01/06 02:20:35;;;;;;;23.33;20.33;;;6.80;99.90;;;;;;4956037;28;20289;-60
2024/01/06 02:23:01;;;;;;;18.93;17.07;;;6.80;99.90;;;;;;4966006;28;20308;-60
2024/01/06 02:25:29;;;;;;;18.37;16.50;;;6.80;99.90;;;;;;4954980;28;20493;-72
2024/01/06 02:27:56;;;;;;;17.07;15.37;;;6.80;99.90;;;;;;4948865;28;20675;-60
2024/01/06 02:30:24;;;;;;;20.23;17.57;;;6.70;99.90;;;;;;4968183;28;20520;-61
2024/01/06 02:32:51;;;;;;;24.23;19.93;;;6.80;99.90;;;;;;4967166;28;20691;-60
2024/01/06 02:35:20;;;;;;;22.13;19.80;;;6.80;99.90;;;;;;4951131;28;20199;-60
2024/01/06 02:37:47;;;;;;;25.23;20.47;;;6.80;99.90;;;;;;4951987;28;20606;-60
2024/01/06 02:40:14;;;;;;;20.53;18.43;;;6.80;99.90;;;;;;4956490;28;20546;-60
2024/01/06 02:42:41;;;;;;;19.13;17.33;;;6.80;99.90;;;;;;4969468;28;20244;-61
2024/01/06 02:45:09;;;;;;;30.97;24.23;;;6.80;99.90;;;;;;4955282;28;20190;-61
2024/01/06 02:47:36;;;;;;;20.23;18.07;;;6.80;99.90;;;;;;4972102;28;20256;-62
2024/01/06 02:50:04;;;;;;;19.13;17.13;;;6.80;99.90;;;;;;4964400;28;20292;-60
2024/01/06 02:52:31;;;;;;;17.77;16.07;;;6.80;99.90;;;;;;4945446;28;20210;-61
2024/01/06 02:54:58;;;;;;;21.07;16.73;;;6.80;99.90;;;;;;4959589;28;20198;-61
2024/01/06 02:57:26;;;;;;;19.60;17.50;;;6.80;99.90;;;;;;4982440;28;20242;-62
2024/01/06 02:59:53;;;;;;;23.33;18.23;;;6.90;99.90;;;;;;4978868;28;20243;-60
2024/01/06 03:06:01;;;;;;;19.17;17.17;;;6.80;99.90;;;;;;4945962;28;20189;-67
2024/01/06 03:08:28;;;;;;;19.17;16.97;;;6.70;99.90;;;;;;4965098;28;20194;-61
2024/01/06 03:10:55;;;;;;;18.87;16.90;;;6.70;99.90;;;;;;4957629;28;20292;-60
2024/01/06 03:13:22;;;;;;;19.23;16.93;;;6.60;99.90;;;;;;4952036;28;20195;-60
2024/01/06 03:15:49;;;;;;;17.77;15.97;;;6.60;99.90;;;;;;4976606;28;20206;-60
2024/01/06 03:18:16;;;;;;;19.00;16.97;;;6.60;99.90;;;;;;4971416;28;20740;-61
2024/01/06 03:20:44;;;;;;;19.37;17.37;;;6.60;99.90;;;;;;4967910;28;20305;-61
2024/01/06 03:23:10;;;;;;;19.60;17.53;;;6.60;99.90;;;;;;4955284;28;20250;-74
2024/01/06 03:25:37;;;;;;;20.67;16.40;;;6.60;99.90;;;;;;4970932;28;20197;-61
2024/01/06 03:28:04;;;;;;;19.47;17.07;;;6.50;99.90;;;;;;4970662;28;20214;-60
2024/01/06 03:30:31;;;;;;;21.47;16.80;;;6.60;99.90;;;;;;4956204;28;20205;-61
2024/01/06 03:32:58;;;;;;;18.70;16.67;;;6.50;99.90;;;;;;4952887;28;20216;-61
2024/01/06 03:35:25;;;;;;;19.63;17.30;;;6.50;99.90;;;;;;4961184;28;20193;-61
2024/01/06 03:37:53;;;;;;;17.87;15.53;;;6.40;99.90;;;;;;4970462;28;20238;-61
2024/01/06 03:40:20;;;;;;;16.73;15.10;;;6.40;99.90;;;;;;4954117;28;20207;-62
2024/01/06 03:42:47;;;;;;;17.77;15.97;;;6.30;99.90;;;;;;4972835;28;20206;-65
2024/01/06 03:45:14;;;;;;;18.10;16.30;;;6.40;99.90;;;;;;4963389;28;20178;-68
2024/01/06 03:47:41;;;;;;;18.40;16.53;;;6.30;99.90;;;;;;4974733;28;20622;-61
2024/01/06 03:50:08;;;;;;;17.23;15.73;;;6.30;99.90;;;;;;4940516;28;20210;-61
2024/01/06 03:52:35;;;;;;;19.13;17.07;;;6.30;99.90;;;;;;4971768;28;20190;-61
2024/01/06 03:55:02;;;;;;;17.97;16.17;;;6.40;99.90;;;;;;4975177;28;20562;-61
2024/01/06 03:57:29;;;;;;;16.83;15.20;;;6.40;99.90;;;;;;4955823;28;20197;-68
2024/01/06 03:59:57;;;;;;;17.73;15.90;;;6.40;99.90;;;;;;4962689;28;20194;-61
2024/01/06 04:02:24;;;;;;;17.03;15.27;;;6.40;99.90;;;;;;4961621;28;20245;-61
2024/01/06 04:04:51;;;;;;;19.00;15.80;;;6.40;99.90;;;;;;4970565;28;20933;-61
2024/01/06 04:07:18;;;;;;;17.13;15.37;;;6.30;99.90;;;;;;4954997;28;20212;-61
2024/01/06 04:09:45;;;;;;;16.17;14.57;;;6.30;99.90;;;;;;4952528;28;20650;-61
2024/01/06 04:12:12;;;;;;;17.27;15.43;;;6.30;99.90;;;;;;4977877;28;20706;-61
2024/01/06 04:14:39;;;;;;;16.37;14.83;;;6.30;99.90;;;;;;4938292;29;20226;-61
2024/01/06 04:17:06;;;;;;;16.70;15.00;;;6.30;99.90;;;;;;4969759;28;20679;-64
2024/01/06 04:19:33;;;;;;;17.27;15.13;;;6.30;99.90;;;;;;4953296;28;20225;-61
2024/01/06 04:22:00;;;;;;;17.47;15.67;;;6.20;99.90;;;;;;4960731;28;20206;-62
2024/01/06 04:24:28;;;;;;;17.50;15.67;;;6.20;99.90;;;;;;4974189;28;20209;-62
2024/01/06 04:26:55;;;;;;;16.17;14.57;;;6.20;99.90;;;;;;4965559;28;20297;-61
2024/01/06 04:29:22;;;;;;;16.30;14.73;;;6.10;99.90;;;;;;4954924;28;20678;-61
2024/01/06 04:31:48;;;;;;;17.33;15.50;;;6.00;99.90;;;;;;4978912;28;20205;-61
2024/01/06 04:34:16;;;;;;;16.07;14.47;;;6.00;99.90;;;;;;4949079;28;20207;-61
2024/01/06 04:36:43;;;;;;;16.80;15.10;;;5.90;99.90;;;;;;4973988;28;20213;-61
2024/01/06 04:39:10;;;;;;;19.57;17.50;;;5.90;99.90;;;;;;4960706;28;20305;-63
2024/01/06 04:41:37;;;;;;;16.67;14.97;;;5.90;99.90;;;;;;4960798;28;20207;-62
2024/01/06 04:44:04;;;;;;;19.37;15.57;;;5.80;99.90;;;;;;4972936;28;20210;-62
2024/01/06 04:46:31;;;;;;;16.57;14.97;;;5.90;99.90;;;;;;4976247;28;20269;-61
2024/01/06 04:48:58;;;;;;;17.27;15.40;;;5.90;99.90;;;;;;4957895;28;20577;-61
2024/01/06 04:51:25;;;;;;;15.93;14.43;;;5.90;99.90;;;;;;4950664;28;20680;-61
2024/01/06 04:53:52;;;;;;;16.73;15.20;;;6.00;99.90;;;;;;4970515;28;20195;-61
2024/01/06 04:56:19;;;;;;;17.93;16.17;;;6.00;99.90;;;;;;4957175;28;20247;-62
2024/01/06 04:58:46;;;;;;;16.70;15.03;;;6.00;99.90;;;;;;4967973;28;20490;-62
2024/01/06 05:01:13;;;;;;;20.17;17.17;;;6.00;99.90;;;;;;4968280;28;20244;-62
2024/01/06 05:03:40;;;;;;;18.23;16.33;;;6.00;99.90;;;;;;4952751;28;20295;-61
2024/01/06 05:06:08;;;;;;;20.03;15.50;;;6.00;99.90;;;;;;4973578;28;20190;-61
2024/01/06 05:08:38;;;;;;;22.13;16.57;;;6.00;99.90;;;;;;4963250;28;20313;-62
2024/01/06 05:11:05;;;;;;;18.33;15.40;;;6.00;99.90;;;;;;4984261;28;20770;-60
2024/01/06 05:13:32;;;;;;;21.90;16.43;;;6.10;99.90;;;;;;4964949;28;20267;-60
2024/01/06 05:15:59;;;;;;;19.87;16.80;;;6.00;99.90;;;;;;4951055;28;20206;-61
2024/01/06 05:18:26;;;;;;;20.20;16.17;;;6.00;99.90;;;;;;4964531;28;20300;-60
2024/01/06 05:20:54;;;;;;;19.90;15.33;;;6.00;99.90;;;;;;4974356;28;20599;-60
2024/01/06 05:23:21;;;;;;;20.67;15.73;;;6.00;99.90;;;;;;4979273;28;20217;-60
2024/01/06 05:25:48;;;;;;;23.27;16.30;;;5.90;99.90;;;;;;4963630;28;20596;-60
2024/01/06 05:28:15;;;;;;;19.63;15.43;;;5.90;99.90;;;;;;4962526;28;20198;-60
2024/01/06 05:30:42;;;;;;;20.77;16.50;;;5.90;99.90;;;;;;4971590;28;20198;-60
2024/01/06 05:33:10;;;;;;;17.10;15.30;;;5.90;99.90;;;;;;4956641;28;20220;-60
2024/01/06 05:35:41;;;;;;;19.40;15.47;;;5.90;99.90;;;;;;4982172;28;20236;-59
2024/01/06 05:38:08;;;;;;;17.47;15.40;;;5.90;99.90;;;;;;4951642;28;20241;-59
2024/01/06 05:40:35;;;;;;;18.90;15.27;;;5.80;99.90;;;;;;4961715;28;20222;-63
2024/01/06 05:43:02;;;;;;;16.57;14.80;;;5.80;99.90;;;;;;4968889;28;20258;-59
2024/01/06 05:45:29;;;;;;;17.00;15.20;;;5.70;99.90;;;;;;4974297;28;20195;-60
2024/01/06 05:47:57;;;;;;;19.00;15.47;;;5.80;99.90;;;;;;4950234;28;20232;-59
2024/01/06 05:50:24;;;;;;;18.97;16.20;;;5.80;99.90;;;;;;4959438;28;20235;-59
2024/01/06 05:52:52;;;;;;;18.50;16.10;;;5.80;99.90;;;;;;4967910;28;20268;-60
2024/01/06 05:55:19;;;;;;;17.03;15.33;;;5.70;99.90;;;;;;4966824;28;20205;-59
2024/01/06 05:57:46;;;;;;;21.40;16.30;;;5.80;99.90;;;;;;4960500;28;20217;-60
2024/01/06 06:00:13;;;;;;;18.77;16.33;;;5.70;99.90;;;;;;4954904;28;20259;-63
2024/01/06 06:02:41;;;;;;;17.10;15.50;;;5.70;99.90;;;;;;4955102;28;20209;-61
2024/01/06 06:05:08;;;;;;;102.03;37.03;;;5.70;99.90;;;;;;4969525;28;20206;-62
2024/01/06 06:07:39;;;;;;;75.00;34.37;;;5.60;99.90;;;;;;4955219;28;20193;-60
2024/01/06 06:10:08;;;;;;;41.50;24.03;;;5.70;99.90;;;;;;4963327;28;20193;-60
2024/01/06 06:12:36;;;;;;;25.63;19.13;;;5.60;99.90;;;;;;4973716;28;20394;-60
2024/01/06 06:15:04;;;;;;;22.13;18.53;;;5.50;99.90;;;;;;4975632;28;20728;-61
2024/01/06 06:17:33;;;;;;;20.83;17.57;;;5.50;99.90;;;;;;4951527;28;20696;-61
2024/01/06 06:20:00;;;;;;;19.60;15.27;;;5.40;99.90;;;;;;4960238;28;20804;-60
2024/01/06 06:22:30;;;;;;;17.17;15.50;;;5.50;99.90;;;;;;4977323;28;20273;-61
2024/01/06 06:24:57;;;;;;;17.67;15.60;;;5.50;99.90;;;;;;4974637;28;20272;-62
2024/01/06 06:27:25;;;;;;;16.90;15.10;;;5.50;99.90;;;;;;4964216;28;20210;-64
2024/01/06 06:29:53;;;;;;;16.47;14.93;;;5.50;99.90;;;;;;4970913;28;20207;-61
2024/01/06 06:32:20;;;;;;;16.70;15.00;;;5.50;99.90;;;;;;4957936;28;20202;-61
2024/01/06 06:34:47;;;;;;;22.03;14.50;;;5.40;99.90;;;;;;4953152;28;20654;-62
2024/01/06 06:37:14;;;;;;;17.40;15.43;;;5.40;99.90;;;;;;4976136;28;20275;-62
2024/01/06 06:39:42;;;;;;;16.40;14.77;;;5.40;99.90;;;;;;4970235;28;20222;-63
2024/01/06 06:42:09;;;;;;;19.10;17.10;;;5.40;99.90;;;;;;4958910;28;20193;-63
2024/01/06 06:44:36;;;;;;;41.33;29.27;;;5.40;99.90;;;;;;4961145;28;20805;-62
2024/01/06 06:47:03;;;;;;;22.53;17.50;;;5.30;99.90;;;;;;4982566;28;20201;-62
2024/01/06 06:49:30;;;;;;;19.97;15.73;;;5.30;99.90;;;;;;4967292;28;20193;-62
2024/01/06 06:51:57;;;;;;;26.97;24.00;;;5.30;99.90;;;;;;4971456;28;20218;-61
2024/01/06 06:54:24;;;;;;;21.53;19.40;;;5.30;99.90;;;;;;4973908;28;20228;-62
2024/01/06 06:56:51;;;;;;;17.47;15.47;;;5.30;99.90;;;;;;4975808;28;20551;-60
2024/01/06 06:59:18;;;;;;;23.77;21.43;;;5.30;99.90;;;;;;4958872;28;20723;-61
2024/01/06 07:01:45;;;;;;;21.07;18.97;;;5.40;99.90;;;;;;4956865;28;20198;-61
2024/01/06 07:04:12;;;;;;;19.20;15.97;;;5.40;99.90;;;;;;4981202;28;20733;-61
2024/01/06 07:06:39;;;;;;;19.07;16.07;;;5.40;99.90;;;;;;4943134;28;20226;-62
2024/01/06 07:09:06;;;;;;;18.23;16.33;;;5.40;99.90;;;;;;4974331;28;20213;-62
2024/01/06 07:11:33;;;;;;;18.00;16.17;;;5.40;99.90;;;;;;4968185;28;20312;-62
2024/01/06 07:14:00;;;;;;;25.33;16.20;;;5.40;99.90;;;;;;4972075;28;20194;-61
2024/01/06 07:16:27;;;;;;;19.23;16.30;;;5.40;99.90;;;;;;4960278;28;20264;-61
2024/01/06 07:18:54;;;;;;;17.17;15.43;;;5.40;99.90;;;;;;4975890;28;20198;-62
2024/01/06 07:21:23;;;;;;;18.43;16.47;;;5.40;99.90;;;;;;4966924;28;20535;-66
2024/01/06 07:23:50;;;;;;;18.00;16.07;;;5.30;99.90;;;;;;4956628;28;20280;-66
2024/01/06 07:26:17;;;;;;;17.97;16.13;;;5.30;99.90;;;;;;4954920;28;20249;-62
2024/01/06 07:28:44;;;;;;;18.77;15.70;;;5.30;99.90;;;;;;4963248;28;20209;-61
2024/01/06 07:31:11;;;;;;;16.03;14.60;;;5.30;99.90;;;;;;4971629;28;20194;-62
2024/01/06 07:33:39;;;;;;;18.37;15.60;;;5.20;99.90;;;;;;4961464;28;20216;-61
2024/01/06 07:36:07;;;;;;;15.43;14.03;;;5.20;99.90;;;;;;4983627;28;20213;-62
2024/01/06 07:38:33;;;;;;;16.87;15.07;;;5.20;99.90;;;;;;4973291;28;20236;-61
2024/01/06 07:41:01;;;;;;;17.47;15.87;;;5.20;99.90;;;;;;4969079;28;20189;-61
2024/01/06 07:43:28;;;;;;;16.87;15.27;;;5.20;99.90;;;;;;4985055;28;20212;-61
2024/01/06 07:45:55;;;;;;;15.63;14.23;;;5.20;99.90;;;;;;4976570;28;20195;-63
2024/01/06 07:48:22;;;;;;;14.87;13.53;;;5.20;99.90;;;;;;4971300;28;20397;-62
2024/01/06 07:50:50;;;;;;;14.17;12.90;;;5.30;99.90;;;;;;4954500;28;20297;-61
2024/01/06 07:53:17;;;;;;;14.30;13.03;;;5.20;99.90;;;;;;4982630;28;20189;-62
2024/01/06 07:55:44;;;;;;;14.20;13.03;;;5.20;99.90;;;;;;4975229;28;21243;-61
2024/01/06 07:58:11;;;;;;;14.30;13.20;;;5.20;99.90;;;;;;4957373;28;20216;-61
2024/01/06 08:00:38;;;;;;;14.50;13.40;;;5.20;99.90;;;;;;4954069;28;20763;-61
2024/01/06 08:03:06;;;;;;;13.70;12.60;;;5.10;99.90;;;;;;4959374;28;20194;-65
2024/01/06 08:05:33;;;;;;;14.63;13.20;;;5.10;99.90;;;;;;4956164;28;20214;-61
2024/01/06 08:08:00;;;;;;;13.93;12.80;;;5.20;99.90;;;;;;4977499;28;20205;-61
2024/01/06 08:10:27;;;;;;;13.93;12.60;;;5.20;99.90;;;;;;4981402;28;20189;-61
2024/01/06 08:12:54;;;;;;;14.27;12.97;;;5.20;99.90;;;;;;4956183;28;20634;-61
2024/01/06 08:15:21;;;;;;;15.17;13.67;;;5.20;99.90;;;;;;4956754;28;20278;-63
2024/01/06 08:17:49;;;;;;;14.73;13.37;;;5.20;99.90;;;;;;4980105;28;20225;-61
2024/01/06 08:20:16;;;;;;;15.30;13.93;;;5.20;99.90;;;;;;4970586;28;20198;-62
2024/01/06 08:22:43;;;;;;;15.07;13.53;;;5.20;99.90;;;;;;4969922;28;20531;-61
2024/01/06 08:25:11;;;;;;;16.00;14.53;;;5.20;99.90;;;;;;4979769;28;20264;-63
2024/01/06 08:27:38;;;;;;;16.43;14.83;;;5.30;99.90;;;;;;4967073;28;20221;-62
2024/01/06 08:30:06;;;;;;;17.47;15.67;;;5.20;99.90;;;;;;4941324;28;20259;-63
2024/01/06 08:32:33;;;;;;;17.77;15.87;;;5.10;99.90;;;;;;4956964;28;20300;-61
2024/01/06 08:35:03;;;;;;;21.50;17.33;;;5.00;99.90;;;;;;4963353;28;20868;-63
2024/01/06 08:37:34;;;;;;;27.07;20.27;;;5.00;99.90;;;;;;4955903;28;20762;-64
2024/01/06 08:40:03;;;;;;;21.67;17.77;;;5.00;99.90;;;;;;4962101;28;20207;-64
2024/01/06 08:42:30;;;;;;;17.57;15.83;;;5.00;99.90;;;;;;4957232;28;20191;-62
2024/01/06 08:44:57;;;;;;;17.50;15.50;;;4.90;99.90;;;;;;4977368;28;20222;-62
2024/01/06 08:47:24;;;;;;;17.07;15.47;;;5.00;99.90;;;;;;4977210;28;20226;-62
2024/01/06 08:49:51;;;;;;;16.40;14.83;;;5.00;99.90;;;;;;4965573;28;20282;-62
2024/01/06 08:52:18;;;;;;;17.17;15.47;;;5.00;99.90;;;;;;4949610;28;20278;-63
2024/01/06 08:54:45;;;;;;;17.57;15.33;;;5.00;99.90;;;;;;4952181;28;20390;-63
2024/01/06 08:57:12;;;;;;;15.87;14.50;;;5.00;99.90;;;;;;4957431;28;20237;-61
2024/01/06 08:59:40;;;;;;;16.97;15.20;;;5.00;99.90;;;;;;4948812;28;20726;-61
2024/01/06 09:02:07;;;;;;;16.30;14.90;;;5.00;99.90;;;;;;4948107;28;20282;-61
2024/01/06 09:04:34;;;;;;;16.93;15.17;;;5.00;99.90;;;;;;4954968;28;20226;-61
2024/01/06 09:07:01;;;;;;;17.17;15.50;;;5.00;99.90;;;;;;4951523;28;20199;-62
2024/01/06 09:09:29;;;;;;;15.70;14.30;;;5.00;99.90;;;;;;4953127;28;20199;-62
2024/01/06 09:11:57;;;;;;;15.17;13.87;;;5.00;99.90;;;;;;4943624;28;20230;-62
2024/01/06 09:14:26;;;;;;;16.43;14.80;;;5.00;99.90;;;;;;4950324;28;20709;-61
2024/01/06 09:16:53;;;;;;;15.83;14.43;;;5.10;99.90;;;;;;4945837;28;20551;-61
2024/01/06 09:19:21;;;;;;;17.03;14.90;;;5.10;99.90;;;;;;4958603;28;20194;-61
2024/01/06 09:21:49;;;;;;;16.57;14.90;;;5.10;99.90;;;;;;4954956;28;20194;-62
2024/01/06 09:24:17;;;;;;;16.17;14.57;;;5.10;99.90;;;;;;4962145;28;20246;-65
2024/01/06 09:26:44;;;;;;;15.87;14.57;;;5.10;99.90;;;;;;4958463;28;20202;-67
2024/01/06 09:29:11;;;;;;;16.97;15.17;;;5.00;99.90;;;;;;4950121;28;20190;-62
2024/01/06 09:31:39;;;;;;;18.30;16.40;;;5.00;99.90;;;;;;4957239;28;20268;-61
2024/01/06 09:34:10;;;;;;;17.37;15.87;;;5.00;99.90;;;;;;4949851;28;20222;-62
2024/01/06 09:36:37;;;;;;;16.43;14.83;;;5.10;99.90;;;;;;4961450;28;20190;-61
2024/01/06 09:39:04;;;;;;;18.90;16.97;;;5.10;99.90;;;;;;4955555;28;20234;-61
2024/01/06 09:41:32;;;;;;;19.47;17.50;;;5.00;99.90;;;;;;4961464;28;20882;-62
2024/01/06 09:43:59;;;;;;;18.77;16.87;;;5.10;99.90;;;;;;4965608;28;20206;-62
2024/01/06 09:46:31;;;;;;;18.70;16.20;;;5.20;99.90;;;;;;4954212;28;20210;-62
2024/01/06 09:48:58;;;;;;;18.13;16.30;;;5.20;99.90;;;;;;4959697;28;20202;-62
2024/01/06 09:51:28;;;;;;;20.27;18.20;;;5.10;99.90;;;;;;4978241;28;20198;-62
2024/01/06 09:54:01;;;;;;;17.53;15.90;;;5.10;99.90;;;;;;4962453;28;20202;-61
2024/01/06 09:56:29;;;;;;;17.10;15.47;;;4.90;99.90;;;;;;4955114;28;20208;-62
2024/01/06 09:58:56;;;;;;;17.80;16.10;;;5.00;99.90;;;;;;4976147;28;20190;-62
2024/01/06 10:01:24;;;;;;;19.17;16.90;;;4.90;99.90;;;;;;4959886;28;20201;-62
2024/01/06 10:03:51;;;;;;;18.87;16.97;;;4.90;99.90;;;;;;4958425;28;20205;-66
2024/01/06 10:06:20;;;;;;;21.30;18.00;;;4.90;99.90;;;;;;4959317;28;20209;-63
2024/01/06 10:08:51;;;;;;;20.43;18.23;;;5.00;99.90;;;;;;4970285;28;20276;-63
2024/01/06 10:11:25;;;;;;;19.23;17.33;;;5.00;99.90;;;;;;4950613;28;20226;-63
2024/01/06 10:13:53;;;;;;;21.73;18.27;;;5.00;99.90;;;;;;4963353;28;20190;-63
2024/01/06 10:16:22;;;;;;;22.57;18.20;;;5.00;99.90;;;;;;4951853;28;20539;-63
2024/01/06 10:18:49;;;;;;;24.77;19.40;;;5.00;99.90;;;;;;4949879;28;20237;-62
2024/01/06 10:21:21;;;;;;;22.40;18.27;;;5.00;99.90;;;;;;4969510;28;20226;-63
2024/01/06 10:23:49;;;;;;;25.23;18.53;;;5.00;99.90;;;;;;4968379;28;20654;-65
2024/01/06 10:26:17;;;;;;;32.27;19.57;;;4.90;99.90;;;;;;4955739;28;20210;-62
2024/01/06 10:28:44;;;;;;;40.53;23.93;;;4.90;99.90;;;;;;4972420;28;20277;-63
2024/01/06 10:31:11;;;;;;;28.93;19.23;;;5.00;99.90;;;;;;4965792;28;20913;-62
2024/01/06 10:33:39;;;;;;;19.77;17.30;;;5.00;99.90;;;;;;4949772;28;21125;-62
2024/01/06 10:36:08;;;;;;;18.50;16.03;;;5.00;99.90;;;;;;4964948;28;20602;-65
2024/01/06 10:38:36;;;;;;;25.00;17.30;;;5.00;99.90;;;;;;4953454;28;20238;-62
2024/01/06 10:41:07;;;;;;;25.13;19.13;;;5.00;99.90;;;;;;4931137;28;20195;-62
2024/01/06 10:43:41;;;;;;;19.07;16.23;;;4.80;99.90;;;;;;4946202;28;20231;-64
2024/01/06 10:46:10;;;;;;;19.60;17.60;;;4.90;99.90;;;;;;4939292;28;20714;-61
2024/01/06 10:48:42;;;;;;;18.13;16.37;;;4.90;99.90;;;;;;4944216;28;20187;-63
2024/01/06 10:51:11;;;;;;;18.87;16.27;;;5.00;99.90;;;;;;4938395;28;20423;-62
2024/01/06 10:53:41;;;;;;;18.37;14.90;;;4.90;99.90;;;;;;4952576;28;20551;-61
2024/01/06 10:56:14;;;;;;;19.07;15.57;;;4.90;99.90;;;;;;4931858;29;20211;-67
2024/01/06 10:58:53;;;;;;;17.80;15.80;;;4.90;99.90;;;;;;4934708;29;20202;-67
2024/01/06 11:01:24;;;;;;;17.67;15.87;;;4.90;99.90;;;;;;4926302;28;20710;-64
2024/01/06 11:03:56;;;;;;;18.63;16.63;;;5.00;99.90;;;;;;4930881;29;20206;-62
2024/01/06 11:06:24;;;;;;;18.73;16.73;;;4.90;99.90;;;;;;4950514;28;20894;-61
2024/01/06 11:08:59;;;;;;;17.80;16.10;;;4.80;99.90;;;;;;4932844;29;20301;-62
2024/01/06 11:11:26;;;;;;;19.97;15.80;;;4.90;99.90;;;;;;4957221;28;20597;-61
2024/01/06 11:14:24;;;;;;;18.83;16.30;;;4.90;99.90;;;;;;4958297;28;20203;-64
2024/01/06 11:17:00;;;;;;;21.43;17.53;;;5.00;99.90;;;;;;4954509;28;20200;-65
2024/01/06 11:19:43;;;;;;;17.80;16.20;;;5.00;99.90;;;;;;4930028;29;20262;-62
2024/01/06 11:22:20;;;;;;;19.27;15.77;;;5.00;99.90;;;;;;4951199;28;20191;-63
2024/01/06 11:24:54;;;;;;;16.67;15.20;;;5.00;99.90;;;;;;4953652;28;20218;-74
2024/01/06 11:27:28;;;;;;;16.80;15.23;;;5.00;99.90;;;;;;4936515;28;20229;-63
2024/01/06 11:30:05;;;;;;;17.90;16.10;;;5.10;99.90;;;;;;4948526;28;20198;-63
2024/01/06 11:32:42;;;;;;;18.63;16.73;;;5.10;99.90;;;;;;4933146;28;20202;-63
2024/01/06 11:35:17;;;;;;;17.77;15.90;;;5.10;99.90;;;;;;4928242;28;20190;-62
2024/01/06 11:37:58;;;;;;;18.00;16.17;;;5.20;99.90;;;;;;4943749;28;20316;-63
2024/01/06 11:40:36;;;;;;;19.57;17.57;;;5.00;99.90;;;;;;4952211;28;20194;-67
2024/01/06 11:43:18;;;;;;;20.63;17.37;;;4.90;99.90;;;;;;4932068;29;20203;-69
2024/01/06 11:45:51;;;;;;;26.13;21.20;;;4.80;99.90;;;;;;4948830;28;20302;-63
2024/01/06 11:48:23;;;;;;;26.90;22.20;;;4.70;99.90;;;;;;4952494;28;20197;-62
2024/01/06 11:50:56;;;;;;;20.27;18.13;;;4.60;99.90;;;;;;4935087;29;20226;-62
2024/01/06 11:53:27;;;;;;;20.43;18.40;;;4.50;99.90;;;;;;4961927;28;20681;-63
2024/01/06 11:56:00;;;;;;;21.37;19.20;;;4.40;99.90;;;;;;4931290;29;20202;-67
2024/01/06 11:58:28;;;;;;;19.90;17.80;;;4.50;99.90;;;;;;4948339;28;20206;-61
2024/01/06 12:00:57;;;;;;;19.17;16.90;;;4.50;99.90;;;;;;4931726;28;20298;-62
2024/01/06 12:03:26;;;;;;;22.17;17.67;;;4.60;99.90;;;;;;4931776;28;20219;-61
2024/01/06 12:06:02;;;;;;;18.87;16.57;;;4.60;99.90;;;;;;4952426;28;20238;-66
2024/01/06 12:08:29;;;;;;;19.30;16.90;;;4.70;99.90;;;;;;4947767;28;20197;-61
2024/01/06 12:11:05;;;;;;;17.73;15.90;;;4.80;99.90;;;;;;4958146;28;20245;-61
2024/01/06 12:13:32;;;;;;;20.47;16.23;;;4.80;99.90;;;;;;4929866;29;20226;-62
2024/01/06 12:16:00;;;;;;;19.03;17.00;;;4.90;99.90;;;;;;4936201;28;20206;-61
2024/01/06 12:18:30;;;;;;;17.17;15.57;;;4.90;99.90;;;;;;4952416;28;20785;-62
2024/01/06 12:20:57;;;;;;;19.83;18.00;;;4.90;99.90;;;;;;4961514;28;20194;-61
2024/01/06 12:23:27;;;;;;;20.50;17.23;;;4.90;99.90;;;;;;4958910;28;20199;-62
2024/01/06 12:25:56;;;;;;;18.17;16.43;;;4.90;99.90;;;;;;4934756;28;20215;-61
2024/01/06 12:28:23;;;;;;;17.53;15.90;;;4.90;99.90;;;;;;4944742;28;20611;-61
2024/01/06 12:30:50;;;;;;;18.87;16.93;;;4.90;99.90;;;;;;4941104;28;20261;-61
2024/01/06 12:33:17;;;;;;;20.47;18.40;;;4.90;99.90;;;;;;4959958;28;20269;-63
2024/01/06 12:35:44;;;;;;;21.07;17.80;;;4.90;99.90;;;;;;4958645;28;20293;-61
2024/01/06 12:38:11;;;;;;;22.10;18.97;;;4.90;99.90;;;;;;4949870;28;20235;-61
2024/01/06 12:40:38;;;;;;;33.43;23.80;;;4.90;99.90;;;;;;4955758;28;20199;-61
2024/01/06 12:43:05;;;;;;;24.23;20.40;;;4.90;99.90;;;;;;4941627;28;20210;-63